TRA155 EHAM-LEIB
Flight info
| Callsign | TRA155 |
|---|---|
| Flight time | N/A |
| Altitude | 25000 |
| Route | WOODY N872 NIK/N0419F230 N872 CIV/N0460F330 DCT KOVIN DCT DUCRA DCT RESMI DCT DEKOD DCT DISAK DCT DIRMO DCT ETAMO DCT ADEKA DCT MOKDI DCT MEN DCT BADAM DCT KANIG DCT KENAS DCT POS |
| Aircraft | B738/M-SDE2E3FGHIRWXY/LB1 |
Departure
| Time | 2026-04-17 10:50 |
|---|---|
| Airport | Amsterdam Airport Schiphol (EHAM) |
Arrival
| Time | N/A |
|---|---|
| Airport | Ibiza Airport (LEIB) |
| Time | Latitude | Longitude | Altitude | Speed | Heading |
|---|---|---|---|---|---|
| 2026-04-17 10:30 | 52.30668 | 4.76600 | -2 ft | 0 kts | 248° |
| 2026-04-17 10:38 | 52.30675 | 4.76627 | -2 ft | 4 kts | 248° |
| 2026-04-17 10:38 | 52.30685 | 4.76666 | -2 ft | 4 kts | 248° |
| 2026-04-17 10:38 | 52.30689 | 4.76704 | -2 ft | 4 kts | 295° |
| 2026-04-17 10:39 | 52.30672 | 4.76734 | -2 ft | 4 kts | 327° |
| 2026-04-17 10:39 | 52.30666 | 4.76741 | -2 ft | 1 kts | 327° |
| 2026-04-17 10:41 | 52.30682 | 4.76730 | -2 ft | 5 kts | 346° |
| 2026-04-17 10:42 | 52.30714 | 4.76753 | -2 ft | 5 kts | 54° |
| 2026-04-17 10:42 | 52.30712 | 4.76811 | -2 ft | 5 kts | 119° |
| 2026-04-17 10:42 | 52.30683 | 4.76846 | -2 ft | 5 kts | 147° |
| 2026-04-17 10:42 | 52.30658 | 4.76890 | -2 ft | 6 kts | 114° |
| 2026-04-17 10:43 | 52.30654 | 4.76974 | -2 ft | 10 kts | 92° |
| 2026-04-17 10:43 | 52.30649 | 4.77114 | -2 ft | 15 kts | 93° |
| 2026-04-17 10:43 | 52.30643 | 4.77286 | -2 ft | 15 kts | 94° |
| 2026-04-17 10:43 | 52.30640 | 4.77446 | -2 ft | 11 kts | 86° |
| 2026-04-17 10:44 | 52.30644 | 4.77536 | -2 ft | 6 kts | 78° |
| 2026-04-17 10:44 | 52.30670 | 4.77585 | -2 ft | 6 kts | 24° |
| 2026-04-17 10:44 | 52.30717 | 4.77593 | -2 ft | 9 kts | 3° |
| 2026-04-17 10:44 | 52.30798 | 4.77600 | -2 ft | 15 kts | 3° |
| 2026-04-17 10:45 | 52.30926 | 4.77613 | -2 ft | 22 kts | 4° |
| 2026-04-17 10:45 | 52.31082 | 4.77626 | -2 ft | 22 kts | 2° |
| 2026-04-17 10:45 | 52.31235 | 4.77640 | -2 ft | 22 kts | 4° |
| 2026-04-17 10:45 | 52.31383 | 4.77655 | -2 ft | 20 kts | 3° |
| 2026-04-17 10:46 | 52.31499 | 4.77579 | -2 ft | 17 kts | 315° |
| 2026-04-17 10:46 | 52.31572 | 4.77497 | -2 ft | 11 kts | 353° |
| 2026-04-17 10:46 | 52.31647 | 4.77518 | -2 ft | 11 kts | 24° |
| 2026-04-17 10:46 | 52.31698 | 4.77605 | -2 ft | 11 kts | 56° |
| 2026-04-17 10:47 | 52.31751 | 4.77683 | -3 ft | 10 kts | 22° |
| 2026-04-17 10:47 | 52.31821 | 4.77695 | -3 ft | 10 kts | 2° |
| 2026-04-17 10:47 | 52.31891 | 4.77701 | -2 ft | 10 kts | 4° |
| 2026-04-17 10:47 | 52.31970 | 4.77712 | -2 ft | 12 kts | 9° |
| 2026-04-17 10:48 | 52.32043 | 4.77778 | -2 ft | 12 kts | 40° |
| 2026-04-17 10:48 | 52.32101 | 4.77864 | -2 ft | 9 kts | 44° |
| 2026-04-17 10:48 | 52.32124 | 4.77940 | -2 ft | 7 kts | 86° |
| 2026-04-17 10:48 | 52.32112 | 4.77997 | -2 ft | 5 kts | 131° |
| 2026-04-17 10:49 | 52.32082 | 4.78013 | -2 ft | 5 kts | 177° |
| 2026-04-17 10:49 | 52.32048 | 4.78010 | -2 ft | 7 kts | 184° |
| 2026-04-17 10:49 | 52.31821 | 4.77988 | -3 ft | 67 kts | 183° |
| 2026-04-17 10:49 | 52.31128 | 4.77923 | -4 ft | 130 kts | 183° |
| 2026-04-17 10:50 | 52.30066 | 4.77825 | 171 ft | 166 kts | 185° |
| 2026-04-17 10:50 | 52.28900 | 4.77708 | 956 ft | 171 kts | 188° |
| 2026-04-17 10:50 | 52.27709 | 4.77775 | 1785 ft | 177 kts | 170° |
| 2026-04-17 10:50 | 52.26459 | 4.78413 | 2303 ft | 203 kts | 166° |
| 2026-04-17 10:51 | 52.25014 | 4.79103 | 2560 ft | 227 kts | 167° |
| 2026-04-17 10:51 | 52.23448 | 4.79827 | 2955 ft | 244 kts | 168° |
| 2026-04-17 10:51 | 52.21760 | 4.80588 | 3426 ft | 258 kts | 171° |
| 2026-04-17 10:51 | 52.19991 | 4.80771 | 4310 ft | 252 kts | 186° |
| 2026-04-17 10:52 | 52.18283 | 4.80545 | 5166 ft | 254 kts | 188° |
| 2026-04-17 10:52 | 52.16513 | 4.80243 | 5978 ft | 257 kts | 189° |
| 2026-04-17 10:52 | 52.14737 | 4.79943 | 6849 ft | 257 kts | 189° |
| 2026-04-17 10:52 | 52.13547 | 4.79749 | 7342 ft | 260 kts | 189° |
| 2026-04-17 10:53 | 52.11209 | 4.79384 | 8262 ft | 266 kts | 189° |
| 2026-04-17 10:53 | 52.09976 | 4.79199 | 8760 ft | 269 kts | 189° |
| 2026-04-17 10:53 | 52.07475 | 4.78834 | 9733 ft | 275 kts | 188° |
| 2026-04-17 10:53 | 52.05559 | 4.78561 | 10452 ft | 279 kts | 188° |
| 2026-04-17 10:54 | 52.04226 | 4.78371 | 10679 ft | 292 kts | 188° |
| 2026-04-17 10:54 | 52.01410 | 4.77971 | 10905 ft | 322 kts | 188° |
| 2026-04-17 10:54 | 51.99897 | 4.77759 | 11017 ft | 336 kts | 188° |
| 2026-04-17 10:54 | 51.97497 | 4.77426 | 11185 ft | 356 kts | 188° |
| 2026-04-17 10:55 | 51.94989 | 4.77080 | 11615 ft | 366 kts | 188° |
| 2026-04-17 10:55 | 51.92513 | 4.76626 | 12241 ft | 367 kts | 195° |
| 2026-04-17 10:55 | 51.90152 | 4.75145 | 12906 ft | 364 kts | 209° |
| 2026-04-17 10:55 | 51.87880 | 4.73304 | 13613 ft | 367 kts | 209° |
| 2026-04-17 10:56 | 51.85578 | 4.71451 | 14210 ft | 371 kts | 209° |
| 2026-04-17 10:56 | 51.83249 | 4.69600 | 14754 ft | 375 kts | 209° |
| 2026-04-17 10:56 | 51.80890 | 4.67743 | 15327 ft | 379 kts | 209° |
| 2026-04-17 10:56 | 51.78501 | 4.65876 | 15868 ft | 383 kts | 209° |
| 2026-04-17 10:57 | 51.76097 | 4.64006 | 16422 ft | 386 kts | 209° |
| 2026-04-17 10:57 | 51.73693 | 4.62140 | 16964 ft | 390 kts | 209° |
| 2026-04-17 10:57 | 51.71234 | 4.60233 | 17493 ft | 394 kts | 209° |
| 2026-04-17 10:57 | 51.68755 | 4.58314 | 17996 ft | 398 kts | 210° |
| 2026-04-17 10:58 | 51.66245 | 4.56371 | 18515 ft | 401 kts | 210° |
| 2026-04-17 10:58 | 51.63719 | 4.54416 | 18970 ft | 404 kts | 210° |
| 2026-04-17 10:58 | 51.61172 | 4.52444 | 19450 ft | 407 kts | 210° |
| 2026-04-17 10:58 | 51.58617 | 4.50468 | 19919 ft | 409 kts | 210° |
| 2026-04-17 10:59 | 51.56040 | 4.48477 | 20372 ft | 412 kts | 210° |
| 2026-04-17 10:59 | 51.53448 | 4.46477 | 20824 ft | 415 kts | 210° |
| 2026-04-17 10:59 | 51.50870 | 4.44490 | 21268 ft | 418 kts | 210° |
| 2026-04-17 10:59 | 51.48242 | 4.42467 | 21695 ft | 420 kts | 210° |
| 2026-04-17 11:00 | 51.45597 | 4.40434 | 22108 ft | 423 kts | 210° |
| 2026-04-17 11:00 | 51.42938 | 4.38392 | 22511 ft | 426 kts | 210° |
| 2026-04-17 11:00 | 51.40254 | 4.36335 | 22905 ft | 428 kts | 210° |
| 2026-04-17 11:00 | 51.37552 | 4.34301 | 23289 ft | 432 kts | 210° |
| 2026-04-17 11:01 | 51.34818 | 4.32266 | 23675 ft | 434 kts | 210° |
| 2026-04-17 11:01 | 51.32068 | 4.30222 | 24015 ft | 436 kts | 210° |